Sunday, December 8, 2019, 4:39 PM EST
Back to Local

KPOU, Poughkeepsie Dutchess Cty

Location: Wappingers Falls, NY, United States Lat: 41.633
Local Time: 4:39 PM EST (21:39 GMT) Lon: -73.883
Time Zone: US/Eastern Elev: 167 ft

Show me the last for .
Show Decoded

2019-12-08 15:53 METAR KPOU 082053Z 18004KT 10SM CLR 02/M07 A3040 RMK AO2 SLP293 T00221067 56011
                 =
2019-12-08 14:53 METAR KPOU 081953Z 18006G14KT 10SM CLR 02/M07 A3040 RMK AO2 SLP295 T00221072 =
2019-12-08 13:53 METAR KPOU 081853Z VRB06KT 10SM CLR 02/M08 A3042 RMK AO2 SLP299 T00221078 =
2019-12-08 12:53 METAR KPOU 081753Z 21007KT 10SM CLR 01/M08 A3043 RMK AO2 SLP304 T00111078 10011
                 21133 58032 =
2019-12-08 11:53 METAR KPOU 081653Z 21003KT 10SM CLR M01/M08 A3047 RMK AO2 SLP317 T10111083 =
2019-12-08 10:53 METAR KPOU 081553Z 24006KT 10SM CLR M03/M09 A3050 RMK AO2 SLP328 T10331089 =
2019-12-08 09:53 METAR KPOU 081453Z 00000KT 10SM CLR M05/M09 A3053 RMK AO2 SLP336 T10501094 58005
                 =
2019-12-08 08:53 METAR KPOU 081353Z 00000KT 10SM CLR M09/M12 A3054 RMK AO2 SLP341 T10941122 =
2019-12-08 07:53 METAR KPOU 081253Z 00000KT 10SM CLR M12/M15 A3054 RMK AO2 SLP342 T11221150 =
2019-12-08 06:53 METAR KPOU 081153Z 00000KT 10SM CLR M13/M16 A3054 RMK AO2 SLP343 I1000 I6000
                 T11281156 11089 21128 53010 =
2019-12-08 05:53 METAR KPOU 081053Z 00000KT 10SM CLR M12/M14 A3054 RMK AO2 SLP340 I1000 T11221144
                 =
2019-12-08 04:53 METAR KPOU 080953Z 00000KT 10SM CLR M12/M14 A3052 RMK AO2 SLP332 I1000 T11171144
                 =
2019-12-08 03:53 METAR KPOU 080853Z 00000KT 10SM CLR M12/M14 A3051 RMK AO2 SLP331 I1000 I3000
                 T11171144 50003 =
2019-12-08 02:53 METAR KPOU 080753Z 00000KT 10SM CLR M11/M14 A3053 RMK AO2 SLP336 I1000 T11111139
                 =
2019-12-08 01:53 METAR KPOU 080653Z 00000KT 10SM CLR M10/M13 A3051 RMK AO2 SLP331 I1000 T11001133
                 =
2019-12-08 00:53 METAR KPOU 080553Z 05003KT 10SM CLR M10/M13 A3050 RMK AO2 SLP328 T11001128 11033
                 21106 51004 =
2019-12-07 23:53 METAR KPOU 080453Z 00000KT 10SM CLR M08/M12 A3050 RMK AO2 SLP328 T10831117
                 400281089 =
2019-12-07 22:53 METAR KPOU 080353Z 00000KT 10SM CLR M08/M11 A3050 RMK AO2 SLP326 T10781111 =
2019-12-07 21:53 METAR KPOU 080253Z 00000KT 10SM CLR M08/M11 A3049 RMK AO2 SLP324 T10781111 51017
                 =
2019-12-07 20:53 METAR KPOU 080153Z 00000KT 10SM CLR M06/M10 A3048 RMK AO2 SLP319 T10561100 =
2019-12-07 19:53 METAR KPOU 080053Z 00000KT 10SM CLR M06/M11 A3046 RMK AO2 SLP314 T10611111 =
2019-12-07 18:53 METAR KPOU 072353Z 31003KT 10SM CLR M04/M10 A3044 RMK AO2 SLP307 T10391100 10028
                 21039 51026 =
2019-12-07 17:53 METAR KPOU 072253Z 00000KT 10SM CLR M03/M09 A3042 RMK AO2 SLP302 T10281094 =
2019-12-07 16:53 METAR KPOU 072153Z 30005KT 10SM FEW055 00/M10 A3039 RMK AO2 SLP291 T00001100 =

Support USWX by starting your Amazon purchase here.